Time;durP1;ratioP1;P1;durP2;ratioP2;P2;SDS_P1;SDS_P2;PMS_P1;PMS_P2;Temp;Humidity;BMP_temperature;BMP_pressure;BME280_temperature;BME280_humidity;BME280_pressure;Samples;Min_cycle;Max_cycle;Signal;HPM_P1;HPM_P2
2022/04/22 00:01:21;;;;;;;9.25;6.35;;;5.90;99.90;;;;;;4998622;28;20030;-73
2022/04/22 00:03:47;;;;;;;7.60;6.10;;;6.00;99.90;;;;;;4999367;28;20511;-73
2022/04/22 00:06:32;;;;;;;10.32;6.15;;;5.90;99.90;;;;;;4998319;28;20029;-73
2022/04/22 00:08:58;;;;;;;8.77;6.28;;;5.80;99.90;;;;;;4998120;28;20083;-73
2022/04/22 00:11:29;;;;;;;9.43;6.20;;;5.80;99.90;;;;;;4999201;28;20037;-73
2022/04/22 00:14:00;;;;;;;11.50;7.07;;;5.80;99.90;;;;;;5004673;28;20029;-73
2022/04/22 00:16:27;;;;;;;9.82;6.13;;;5.70;99.90;;;;;;5003176;28;20049;-73
2022/04/22 00:18:57;;;;;;;8.32;5.90;;;5.70;99.90;;;;;;5001388;28;20030;-74
2022/04/22 00:21:23;;;;;;;9.52;6.88;;;5.60;99.90;;;;;;5000194;28;20026;-73
2022/04/22 00:23:50;;;;;;;15.90;7.10;;;5.60;99.90;;;;;;5001678;28;20084;-73
2022/04/22 00:26:17;;;;;;;8.60;6.15;;;5.40;99.90;;;;;;5003308;28;20069;-73
2022/04/22 00:28:42;;;;;;;10.43;5.88;;;5.30;99.90;;;;;;5003946;28;20065;-73
2022/04/22 00:31:08;;;;;;;7.75;6.50;;;5.30;99.90;;;;;;5001265;28;20473;-73
2022/04/22 00:33:35;;;;;;;9.65;6.53;;;5.20;99.90;;;;;;5000911;28;20034;-73
2022/04/22 00:36:01;;;;;;;10.40;5.97;;;5.20;99.90;;;;;;4998917;28;21008;-73
2022/04/22 00:38:26;;;;;;;10.60;6.25;;;5.10;99.90;;;;;;5001647;28;20034;-73
2022/04/22 00:40:56;;;;;;;9.65;6.80;;;5.00;99.90;;;;;;5000193;28;20092;-73
2022/04/22 00:43:23;;;;;;;8.23;5.97;;;5.10;99.90;;;;;;5001100;28;20050;-73
2022/04/22 00:45:50;;;;;;;8.10;6.15;;;5.10;99.90;;;;;;4996681;28;20028;-73
2022/04/22 00:48:19;;;;;;;9.60;6.72;;;5.00;99.90;;;;;;4996881;28;20076;-73
2022/04/22 00:50:45;;;;;;;9.45;5.97;;;5.00;99.90;;;;;;4999266;28;20034;-73
2022/04/22 00:53:12;;;;;;;14.63;7.45;;;5.00;99.90;;;;;;4999843;28;20053;-73
2022/04/22 00:55:44;;;;;;;11.27;6.78;;;5.00;99.90;;;;;;5001423;28;20065;-73
2022/04/22 00:58:10;;;;;;;9.93;7.30;;;5.00;99.90;;;;;;5000051;28;20030;-73
2022/04/22 01:00:36;;;;;;;11.73;6.95;;;5.00;99.90;;;;;;4999034;28;20026;-73
2022/04/22 01:03:03;;;;;;;9.95;6.63;;;5.00;99.90;;;;;;5001257;28;20025;-72
2022/04/22 01:10:59;;;;;;;10.80;7.05;;;5.00;99.90;;;;;;4998270;28;20036;-72
2022/04/22 01:13:25;;;;;;;10.57;7.63;;;4.90;99.90;;;;;;4999865;28;20095;-72
2022/04/22 01:15:50;;;;;;;11.77;6.85;;;4.90;99.90;;;;;;4997379;28;20033;-72
2022/04/22 01:18:17;;;;;;;11.73;7.50;;;4.90;99.90;;;;;;4999042;28;20077;-72
2022/04/22 01:20:43;;;;;;;12.80;7.95;;;4.90;99.90;;;;;;4996184;28;20092;-72
2022/04/22 01:23:09;;;;;;;8.98;7.53;;;5.00;99.90;;;;;;5000281;28;20124;-72
2022/04/22 01:25:35;;;;;;;13.38;8.18;;;5.10;99.90;;;;;;5000012;28;20025;-73
2022/04/22 01:28:02;;;;;;;13.15;7.57;;;5.20;99.90;;;;;;4997339;28;21481;-73
2022/04/22 01:30:27;;;;;;;11.52;7.55;;;5.20;99.90;;;;;;4993943;28;20465;-73
2022/04/22 01:32:56;;;;;;;13.75;8.10;;;5.20;99.90;;;;;;5000571;28;20049;-73
2022/04/22 01:35:22;;;;;;;18.98;7.80;;;5.10;99.90;;;;;;4997465;28;20480;-73
2022/04/22 01:37:48;;;;;;;11.25;7.25;;;5.10;99.90;;;;;;4996401;28;20104;-73
2022/04/22 01:40:15;;;;;;;13.45;7.80;;;5.10;99.90;;;;;;4996628;28;20099;-73
2022/04/22 01:42:41;;;;;;;10.77;7.90;;;4.90;99.90;;;;;;4998779;28;20556;-73
2022/04/22 01:45:08;;;;;;;14.25;8.32;;;4.90;99.90;;;;;;5000267;28;20033;-72
2022/04/22 01:47:34;;;;;;;12.55;7.40;;;4.80;99.90;;;;;;4998471;28;20097;-72
2022/04/22 01:50:00;;;;;;;11.90;7.20;;;4.80;99.90;;;;;;4998565;28;20040;-72
2022/04/22 01:52:26;;;;;;;11.43;7.65;;;4.70;99.90;;;;;;4999831;28;20061;-72
2022/04/22 01:54:54;;;;;;;12.60;7.78;;;4.80;99.90;;;;;;4999047;28;20124;-73
2022/04/22 01:57:20;;;;;;;13.40;7.90;;;4.90;99.90;;;;;;4999563;28;20050;-73
2022/04/22 01:59:48;;;;;;;14.65;8.32;;;4.80;99.90;;;;;;4996371;28;22213;-72
2022/04/22 02:02:17;;;;;;;15.20;7.97;;;4.80;99.90;;;;;;4995564;28;20049;-72
2022/04/22 02:04:44;;;;;;;13.85;8.30;;;4.80;99.90;;;;;;5000225;28;20065;-72
2022/04/22 02:07:10;;;;;;;12.63;7.60;;;4.80;99.90;;;;;;4997980;28;20038;-72
2022/04/22 02:09:36;;;;;;;14.65;7.63;;;4.80;99.90;;;;;;4998372;28;20030;-73
2022/04/22 02:12:04;;;;;;;10.75;7.40;;;4.70;99.90;;;;;;5001650;28;20029;-73
2022/04/22 02:14:30;;;;;;;12.80;7.85;;;4.80;99.90;;;;;;4998886;28;20060;-73
2022/04/22 02:16:56;;;;;;;16.67;9.30;;;4.80;99.90;;;;;;4996975;28;20033;-73
2022/04/22 02:19:22;;;;;;;15.65;9.10;;;4.90;99.90;;;;;;4999097;28;20053;-73
2022/04/22 02:21:49;;;;;;;12.70;7.95;;;4.90;99.90;;;;;;5016319;28;20073;-73
2022/04/22 02:24:15;;;;;;;12.57;7.70;;;4.90;99.90;;;;;;4998275;28;20045;-72
2022/04/22 02:29:26;;;;;;;14.25;8.35;;;5.00;99.90;;;;;;4995397;28;20180;-72
2022/04/22 02:31:52;;;;;;;15.75;8.98;;;5.10;99.90;;;;;;4996091;28;20478;-73
2022/04/22 02:34:22;;;;;;;14.77;8.68;;;5.10;99.90;;;;;;4999848;28;20034;-72
2022/04/22 02:36:49;;;;;;;12.25;8.40;;;5.10;99.90;;;;;;4998549;28;20145;-73
2022/04/22 02:39:15;;;;;;;13.40;8.48;;;5.10;99.90;;;;;;5001703;28;20033;-73
2022/04/22 02:47:10;;;;;;;14.30;8.02;;;5.00;99.90;;;;;;4999289;28;20037;-73
2022/04/22 02:49:36;;;;;;;15.27;8.75;;;5.00;99.90;;;;;;5000960;28;20783;-73
2022/04/22 02:52:02;;;;;;;14.93;9.07;;;4.90;99.90;;;;;;4996725;28;20155;-73
2022/04/22 02:54:30;;;;;;;16.77;9.43;;;4.70;99.90;;;;;;5003136;28;20033;-72
2022/04/22 02:56:59;;;;;;;;;;;4.70;99.90;;;;;;4999911;28;20457;-72
2022/04/22 02:59:25;;;;;;;14.85;9.63;;;4.60;99.90;;;;;;4999215;28;19917;-72
2022/04/22 03:01:50;;;;;;;15.88;8.80;;;4.50;99.90;;;;;;4998811;28;20046;-72
2022/04/22 03:04:16;;;;;;;16.65;9.65;;;4.30;99.90;;;;;;5000296;28;20493;-72
2022/04/22 03:06:43;;;;;;;17.70;10.43;;;4.10;99.90;;;;;;4999065;28;20041;-73
2022/04/22 03:09:09;;;;;;;17.05;9.80;;;4.10;99.90;;;;;;5001056;28;20478;-72
2022/04/22 03:11:34;;;;;;;16.08;9.93;;;4.20;99.90;;;;;;4998258;28;20041;-72
2022/04/22 03:14:01;;;;;;;18.30;10.23;;;4.30;99.90;;;;;;4998843;28;20088;-72
2022/04/22 03:16:28;;;;;;;17.35;10.38;;;4.40;99.90;;;;;;5000524;28;20038;-72
2022/04/22 03:18:54;;;;;;;17.00;10.68;;;4.40;99.90;;;;;;4997696;28;20040;-73
2022/04/22 03:21:20;;;;;;;16.92;10.18;;;4.50;99.90;;;;;;5000340;28;20022;-72
2022/04/22 03:23:45;;;;;;;18.52;10.48;;;4.60;99.90;;;;;;5001187;28;20045;-72
2022/04/22 03:26:11;;;;;;;17.02;10.35;;;4.60;99.90;;;;;;4999867;28;20413;-72
2022/04/22 03:28:38;;;;;;;16.65;10.13;;;4.50;99.90;;;;;;5000529;28;20064;-72
2022/04/22 03:31:04;;;;;;;19.02;11.48;;;4.50;99.90;;;;;;5001835;28;20099;-72
2022/04/22 03:33:30;;;;;;;17.90;11.07;;;4.40;99.90;;;;;;5001727;28;20026;-72
2022/04/22 03:35:56;;;;;;;20.20;11.13;;;4.20;99.90;;;;;;5002581;28;20049;-72
2022/04/22 03:38:22;;;;;;;18.42;10.68;;;4.20;99.90;;;;;;4999945;28;20037;-71
2022/04/22 03:40:49;;;;;;;19.45;10.32;;;4.10;99.90;;;;;;5003251;28;20080;-72
2022/04/22 03:43:15;;;;;;;18.63;11.15;;;4.20;99.90;;;;;;4998054;28;20127;-73
2022/04/22 03:45:41;;;;;;;20.42;10.98;;;4.20;99.90;;;;;;4999950;28;20037;-73
2022/04/22 03:48:08;;;;;;;20.38;10.65;;;4.20;99.90;;;;;;4999690;28;20030;-73
2022/04/22 03:50:34;;;;;;;20.13;12.48;;;4.20;99.90;;;;;;4998767;28;20393;-73
2022/04/22 03:53:00;;;;;;;24.30;12.10;;;4.20;99.90;;;;;;5004059;28;20038;-73
2022/04/22 03:55:26;;;;;;;19.55;12.25;;;4.20;99.90;;;;;;5002303;28;20038;-72
2022/04/22 03:58:10;;;;;;;22.95;11.50;;;4.20;99.90;;;;;;5001172;28;20459;-72
2022/04/22 04:00:40;;;;;;;21.58;11.35;;;4.20;99.90;;;;;;5000355;28;20034;-73
2022/04/22 04:03:10;;;;;;;18.90;10.65;;;4.20;99.90;;;;;;5000567;28;20152;-73
2022/04/22 04:05:49;;;;;;;19.40;11.27;;;4.20;99.90;;;;;;5000296;28;20386;-72
2022/04/22 04:08:18;;;;;;;21.70;11.63;;;4.10;99.90;;;;;;5000071;28;20038;-73
2022/04/22 04:16:12;;;;;;;18.67;11.10;;;3.90;99.90;;;;;;5002403;28;20476;-72
2022/04/22 04:18:39;;;;;;;19.02;10.95;;;3.70;99.90;;;;;;4998650;28;21213;-72
2022/04/22 04:23:54;;;;;;;23.25;13.10;;;3.60;99.90;;;;;;5001916;28;20029;-73
2022/04/22 04:26:21;;;;;;;21.38;13.13;;;3.70;99.90;;;;;;5001658;28;20044;-72
2022/04/22 04:28:49;;;;;;;26.50;13.15;;;3.70;99.90;;;;;;4999586;28;20030;-73
2022/04/22 04:31:15;;;;;;;21.02;12.35;;;3.70;99.90;;;;;;4998604;28;20054;-72
2022/04/22 04:33:42;;;;;;;25.20;13.20;;;3.70;99.90;;;;;;5001321;28;20070;-72
2022/04/22 04:36:11;;;;;;;26.77;14.05;;;3.70;99.90;;;;;;5002225;28;20052;-72
2022/04/22 04:38:42;;;;;;;24.73;12.73;;;3.80;99.90;;;;;;5001458;28;20076;-72
2022/04/22 04:41:09;;;;;;;26.25;13.45;;;3.90;99.90;;;;;;5001908;28;20479;-72
2022/04/22 04:43:38;;;;;;;23.45;13.43;;;3.90;99.90;;;;;;5000232;28;20794;-72
2022/04/22 04:46:04;;;;;;;22.42;12.80;;;3.80;99.90;;;;;;5001826;28;20036;-73
2022/04/22 04:48:30;;;;;;;23.30;12.32;;;3.80;99.90;;;;;;4995880;28;20469;-73
2022/04/22 04:50:56;;;;;;;29.27;13.82;;;3.80;99.90;;;;;;4999470;28;20041;-73
2022/04/22 04:53:25;;;;;;;22.27;13.07;;;3.80;99.90;;;;;;5000618;28;20041;-73
2022/04/22 04:55:52;;;;;;;25.70;13.70;;;3.90;99.90;;;;;;5001013;28;20034;-73
2022/04/22 04:58:21;;;;;;;23.05;13.18;;;3.90;99.90;;;;;;4998135;28;20125;-73
2022/04/22 05:00:51;;;;;;;25.75;12.40;;;3.90;99.90;;;;;;4998610;28;20041;-73
2022/04/22 05:03:17;;;;;;;23.52;12.77;;;3.90;99.90;;;;;;5001112;28;20061;-73
2022/04/22 05:05:43;;;;;;;25.00;13.57;;;3.80;99.90;;;;;;5000875;28;20117;-73
2022/04/22 05:08:09;;;;;;;26.20;13.73;;;3.80;99.90;;;;;;4999844;28;20034;-73
2022/04/22 05:10:36;;;;;;;25.52;12.95;;;3.80;99.90;;;;;;4996496;28;20110;-73
2022/04/22 05:13:03;;;;;;;24.13;13.25;;;3.80;99.90;;;;;;5000333;28;20473;-73
2022/04/22 05:15:30;;;;;;;23.33;12.82;;;3.80;99.90;;;;;;4998553;28;20036;-73
2022/04/22 05:17:58;;;;;;;24.63;13.27;;;3.90;99.90;;;;;;4999559;28;20042;-73
2022/04/22 05:20:25;;;;;;;26.13;14.02;;;4.00;99.90;;;;;;4998297;28;20087;-72
2022/04/22 05:22:51;;;;;;;22.92;13.90;;;4.00;99.90;;;;;;5013445;28;20505;-73
2022/04/22 05:25:18;;;;;;;29.98;14.27;;;4.10;99.90;;;;;;5001768;28;20068;-73
2022/04/22 05:27:44;;;;;;;25.98;13.88;;;4.10;99.90;;;;;;5001100;28;20037;-73
2022/04/22 05:32:57;;;;;;;26.55;13.10;;;4.10;99.90;;;;;;4997783;28;20159;-73
2022/04/22 05:35:27;;;;;;;27.73;13.70;;;4.20;99.90;;;;;;5001341;28;20041;-72
2022/04/22 05:37:58;;;;;;;30.73;14.95;;;4.30;99.90;;;;;;4998481;28;20057;-72
2022/04/22 05:40:27;;;;;;;24.23;13.38;;;4.30;99.90;;;;;;4999665;28;20044;-72
2022/04/22 05:42:54;;;;;;;27.98;14.88;;;4.40;99.90;;;;;;5000186;28;20145;-73
2022/04/22 05:45:21;;;;;;;27.10;14.48;;;4.50;99.90;;;;;;5003171;28;20034;-73
2022/04/22 05:47:47;;;;;;;27.00;15.35;;;4.60;99.90;;;;;;5016027;28;20046;-73
2022/04/22 05:50:15;;;;;;;30.90;16.50;;;4.70;99.90;;;;;;5000086;28;20070;-72
2022/04/22 05:52:41;;;;;;;28.65;13.77;;;4.70;99.90;;;;;;5002267;28;20049;-72
2022/04/22 05:55:09;;;;;;;26.80;15.73;;;4.70;99.90;;;;;;5001927;28;20037;-73
2022/04/22 05:57:36;;;;;;;29.42;16.10;;;4.80;99.90;;;;;;5001204;28;20053;-73
2022/04/22 06:00:07;;;;;;;27.40;14.40;;;4.80;99.90;;;;;;4999631;28;20030;-72
2022/04/22 06:02:32;;;;;;;28.70;15.27;;;4.90;99.90;;;;;;4999621;28;20077;-73
2022/04/22 06:04:58;;;;;;;33.65;16.77;;;5.00;99.90;;;;;;4999202;28;20128;-73
2022/04/22 06:07:23;;;;;;;29.35;15.88;;;5.20;99.90;;;;;;4998750;28;20022;-73
2022/04/22 06:12:33;;;;;;;33.15;16.63;;;5.40;99.90;;;;;;5001296;28;20049;-71
2022/04/22 06:15:04;;;;;;;35.38;18.30;;;5.50;99.90;;;;;;5006325;28;20034;-73
2022/04/22 06:17:30;;;;;;;25.40;15.45;;;5.50;99.90;;;;;;5003777;28;20038;-72
2022/04/22 06:19:57;;;;;;;33.30;16.38;;;5.50;99.90;;;;;;4996238;28;20489;-72
2022/04/22 06:22:23;;;;;;;31.52;16.52;;;5.60;99.90;;;;;;5004524;28;20117;-72
2022/04/22 06:24:49;;;;;;;28.00;15.18;;;5.70;99.90;;;;;;5001870;28;20022;-72
2022/04/22 06:27:23;;;;;;;30.30;16.15;;;5.80;99.90;;;;;;5004629;28;20088;-73
2022/04/22 06:29:49;;;;;;;30.90;16.08;;;5.90;99.90;;;;;;5002567;28;20479;-73
2022/04/22 06:32:16;;;;;;;30.85;15.57;;;5.90;99.90;;;;;;5002794;28;20064;-73
2022/04/22 06:34:41;;;;;;;39.03;17.02;;;6.20;99.90;;;;;;5004130;28;20473;-72
2022/04/22 06:37:10;;;;;;;32.60;17.73;;;6.40;99.90;;;;;;5004651;28;20037;-72
2022/04/22 06:45:46;;;;;;;33.80;16.55;;;6.70;99.90;;;;;;5003383;28;20026;-73
2022/04/22 06:47:52;;;;;;;31.20;16.77;;;7.30;99.90;;;;;;5004646;28;20037;-73
2022/04/22 06:50:19;;;;;;;27.75;15.68;;;7.30;99.90;;;;;;5004238;28;20034;-73
2022/04/22 06:52:46;;;;;;;28.48;14.80;;;7.50;99.90;;;;;;5005888;28;20087;-73
2022/04/22 06:55:19;;;;;;;24.90;14.35;;;7.60;99.90;;;;;;5004215;28;20393;-73
2022/04/22 06:57:49;;;;;;;28.80;14.57;;;7.90;99.90;;;;;;5000709;28;20038;-73
2022/04/22 07:00:16;;;;;;;24.45;12.73;;;8.00;99.90;;;;;;5002873;28;20036;-74
2022/04/22 07:02:45;;;;;;;24.63;14.48;;;8.20;99.90;;;;;;5002475;28;20076;-73
2022/04/22 07:05:11;;;;;;;21.25;13.48;;;8.30;99.90;;;;;;5006239;28;20116;-74
2022/04/22 07:07:37;;;;;;;26.63;14.45;;;8.40;99.90;;;;;;5004917;28;20128;-73
2022/04/22 07:10:03;;;;;;;22.35;13.30;;;8.50;99.90;;;;;;5005183;28;20537;-71
2022/04/22 07:12:31;;;;;;;19.67;11.77;;;8.70;99.90;;;;;;5002741;28;20292;-73
2022/04/22 07:15:05;;;;;;;21.23;10.65;;;8.70;99.90;;;;;;5003536;28;20092;-73
2022/04/22 07:17:34;;;;;;;22.83;12.45;;;8.60;99.90;;;;;;5001694;28;20050;-73
2022/04/22 07:20:03;;;;;;;24.20;14.30;;;8.60;99.90;;;;;;5003155;28;20110;-74
2022/04/22 07:22:29;;;;;;;18.48;11.13;;;8.60;99.90;;;;;;5002785;28;20038;-74
2022/04/22 07:24:56;;;;;;;22.23;12.55;;;8.80;99.90;;;;;;5004084;28;20473;-74
2022/04/22 07:27:30;;;;;;;18.73;11.45;;;9.00;99.90;;;;;;5004493;28;20068;-73
2022/04/22 07:29:58;;;;;;;18.75;11.57;;;9.20;99.90;;;;;;5002280;28;20275;-73
2022/04/22 07:32:25;;;;;;;17.15;10.30;;;9.20;99.90;;;;;;5005189;28;20141;-73
2022/04/22 07:34:51;;;;;;;19.45;10.98;;;9.30;99.90;;;;;;5004147;28;20033;-73
2022/04/22 07:37:17;;;;;;;16.90;11.05;;;9.30;99.90;;;;;;5004710;28;20061;-72
2022/04/22 07:39:43;;;;;;;16.45;10.02;;;9.30;99.90;;;;;;5005958;28;20539;-73
2022/04/22 07:42:21;;;;;;;22.33;11.60;;;9.20;99.90;;;;;;5004761;28;20144;-73
2022/04/22 07:47:34;;;;;;;17.25;11.35;;;9.50;99.90;;;;;;5007582;28;20087;-73
2022/04/22 07:50:05;;;;;;;16.83;10.93;;;9.60;99.90;;;;;;5006033;28;20038;-73
2022/04/22 07:52:32;;;;;;;22.92;12.13;;;9.70;99.90;;;;;;5003271;28;20038;-73
2022/04/22 07:54:58;;;;;;;17.97;11.63;;;9.80;99.90;;;;;;5004445;28;20034;-73
2022/04/22 07:57:24;;;;;;;17.40;10.98;;;9.80;99.90;;;;;;5002512;28;20048;-73
2022/04/22 07:59:49;;;;;;;17.90;10.70;;;9.80;99.90;;;;;;5004044;28;20072;-73
2022/04/22 08:02:16;;;;;;;20.73;11.60;;;9.80;99.90;;;;;;5000630;28;20159;-72
2022/04/22 08:04:41;;;;;;;17.05;11.65;;;9.90;99.90;;;;;;5005758;28;20520;-72
2022/04/22 08:07:08;;;;;;;19.02;11.13;;;10.20;99.90;;;;;;5004894;28;20117;-73
2022/04/22 08:09:34;;;;;;;16.77;10.00;;;10.30;99.90;;;;;;5001820;28;20384;-73
2022/04/22 08:12:00;;;;;;;12.77;9.27;;;10.20;99.90;;;;;;5005816;28;20037;-73
2022/04/22 08:14:29;;;;;;;17.48;10.68;;;10.10;99.90;;;;;;5004117;28;20022;-73
2022/04/22 08:16:54;;;;;;;;;;;10.30;99.90;;;;;;5003926;28;20129;-73
2022/04/22 08:19:20;;;;;;;16.48;9.43;;;10.20;99.90;;;;;;5001844;28;19921;-73
2022/04/22 08:21:46;;;;;;;16.08;10.25;;;10.20;99.90;;;;;;5006457;28;20739;-72
2022/04/22 08:24:12;;;;;;;16.85;10.45;;;10.20;99.90;;;;;;5004520;28;20030;-73
2022/04/22 08:26:38;;;;;;;15.48;9.80;;;10.20;99.90;;;;;;5004908;28;20416;-73
2022/04/22 08:29:04;;;;;;;13.18;9.23;;;10.10;99.90;;;;;;5003947;28;20542;-73
2022/04/22 08:31:30;;;;;;;15.00;9.63;;;10.20;99.90;;;;;;5001692;28;20046;-73
2022/04/22 08:33:57;;;;;;;15.77;9.60;;;10.30;99.90;;;;;;5001176;28;20038;-74
2022/04/22 08:36:23;;;;;;;15.63;10.02;;;10.50;99.90;;;;;;5002672;28;20056;-74
2022/04/22 08:38:49;;;;;;;20.98;10.57;;;10.50;99.90;;;;;;5003809;28;20133;-73
2022/04/22 08:41:17;;;;;;;16.15;10.30;;;10.50;99.90;;;;;;5003962;28;20116;-74
2022/04/22 08:43:43;;;;;;;16.23;9.95;;;10.70;99.90;;;;;;5005286;28;20073;-74
2022/04/22 08:49:58;;;;;;;13.93;8.60;;;10.90;99.90;;;;;;5006451;28;20117;-73
2022/04/22 08:51:44;;;;;;;11.50;8.13;;;11.10;99.90;;;;;;5000018;28;19923;-73
2022/04/22 08:54:12;;;;;;;17.70;9.98;;;11.00;99.90;;;;;;5003121;28;20167;-73
2022/04/22 08:56:39;;;;;;;16.27;10.02;;;10.90;99.90;;;;;;5004676;28;20033;-73
2022/04/22 08:59:05;;;;;;;13.75;9.15;;;11.00;99.90;;;;;;5000378;28;20087;-73
2022/04/22 09:01:32;;;;;;;17.48;10.93;;;11.10;99.90;;;;;;4998927;28;20049;-74
2022/04/22 09:03:57;;;;;;;17.80;10.25;;;11.00;99.90;;;;;;4984843;28;20491;-73
2022/04/22 09:06:26;;;;;;;15.88;10.48;;;11.30;99.90;;;;;;5004081;28;20087;-73
2022/04/22 09:08:56;;;;;;;17.45;10.63;;;11.30;99.90;;;;;;5004938;28;20038;-73
2022/04/22 09:11:23;;;;;;;18.70;10.10;;;11.20;99.90;;;;;;5003549;28;20029;-73
2022/04/22 09:13:49;;;;;;;13.25;9.55;;;11.50;99.90;;;;;;5002187;28;20048;-73
2022/04/22 09:16:21;;;;;;;15.93;10.02;;;11.60;99.90;;;;;;5002401;28;20046;-73
2022/04/22 09:18:47;;;;;;;18.88;10.52;;;11.30;99.90;;;;;;4999344;28;20038;-73
2022/04/22 09:21:19;;;;;;;15.07;10.05;;;11.60;99.90;;;;;;5001460;28;20044;-74
2022/04/22 09:23:49;;;;;;;15.40;10.55;;;11.50;98.70;;;;;;5001886;28;20092;-73
2022/04/22 09:26:22;;;;;;;14.52;10.00;;;11.50;99.90;;;;;;5002321;28;20021;-73
2022/04/22 09:29:01;;;;;;;15.75;10.63;;;11.70;99.90;;;;;;5002480;28;20449;-73
2022/04/22 09:31:27;;;;;;;;;;;12.00;99.90;;;;;;5001704;28;20420;-73
2022/04/22 09:33:54;;;;;;;13.85;8.80;;;12.10;97.30;;;;;;5001922;28;20392;-73
2022/04/22 09:44:54;;;;;;;16.63;10.45;;;11.50;99.90;;;;;;5008432;28;20049;-73
2022/04/22 09:47:20;;;;;;;16.83;10.63;;;12.00;99.90;;;;;;5006181;28;20030;-73
2022/04/22 09:49:46;;;;;;;17.20;10.57;;;12.30;99.90;;;;;;5004336;28;20041;-73
2022/04/22 09:52:12;;;;;;;16.63;11.25;;;12.50;99.90;;;;;;5008608;28;20030;-73
2022/04/22 09:54:38;;;;;;;15.88;10.18;;;12.50;95.90;;;;;;5006569;28;20033;-73
2022/04/22 09:57:04;;;;;;;15.55;10.60;;;12.60;99.20;;;;;;5005784;28;20512;-74
2022/04/22 09:59:32;;;;;;;17.13;10.13;;;12.80;99.90;;;;;;5005193;28;20084;-73
2022/04/22 10:02:00;;;;;;;17.27;10.90;;;12.80;98.60;;;;;;5004481;28;20046;-73
2022/04/22 10:04:27;;;;;;;16.13;10.38;;;12.70;99.10;;;;;;5006207;28;20030;-74
2022/04/22 10:06:56;;;;;;;14.85;10.50;;;12.70;99.10;;;;;;5007034;28;20037;-74
2022/04/22 10:09:23;;;;;;;14.80;10.38;;;12.60;99.90;;;;;;5006129;28;20105;-74
2022/04/22 10:11:52;;;;;;;13.30;9.23;;;12.90;98.80;;;;;;5006673;28;20065;-74
2022/04/22 10:14:35;;;;;;;13.52;9.88;;;12.80;93.40;;;;;;5005503;28;20026;-74
2022/04/22 10:17:03;;;;;;;16.60;11.07;;;13.00;96.10;;;;;;5006211;28;20553;-74
2022/04/22 10:19:30;;;;;;;15.88;10.93;;;13.40;96.20;;;;;;5005731;28;20041;-75
2022/04/22 10:21:55;;;;;;;16.02;10.27;;;13.30;99.90;;;;;;5003927;28;20116;-74
2022/04/22 10:24:22;;;;;;;17.88;11.20;;;13.30;97.60;;;;;;5008616;28;20536;-74
2022/04/22 10:26:48;;;;;;;14.75;9.98;;;13.20;97.90;;;;;;5007957;28;20033;-74
2022/04/22 10:29:14;;;;;;;16.83;10.93;;;13.10;90.40;;;;;;5007160;28;20045;-74
2022/04/22 10:31:40;;;;;;;19.38;12.02;;;13.20;97.30;;;;;;5006667;28;20046;-75
2022/04/22 10:34:07;;;;;;;19.88;11.65;;;13.40;99.90;;;;;;5008920;28;20026;-74
2022/04/22 10:36:38;;;;;;;14.95;10.68;;;13.50;97.90;;;;;;5005989;28;20034;-74
2022/04/22 10:39:04;;;;;;;17.02;11.15;;;13.60;99.00;;;;;;5005075;28;20048;-74
2022/04/22 10:41:35;;;;;;;15.23;9.77;;;13.60;95.50;;;;;;5007596;28;20060;-74
2022/04/22 10:49:38;;;;;;;14.88;10.55;;;13.50;94.50;;;;;;5006020;28;20041;-74
2022/04/22 10:52:17;;;;;;;15.70;10.15;;;13.60;99.00;;;;;;5005817;28;20056;-73
2022/04/22 10:54:52;;;;;;;16.38;10.18;;;13.60;93.30;;;;;;5004248;28;20092;-73
2022/04/22 10:57:25;;;;;;;15.32;10.13;;;13.60;98.10;;;;;;5004251;28;20108;-73
2022/04/22 11:00:11;;;;;;;21.63;10.85;;;13.50;92.80;;;;;;5006335;28;20317;-73
2022/04/22 11:02:42;;;;;;;16.63;10.20;;;13.80;98.20;;;;;;5003648;28;20042;-73
2022/04/22 11:05:20;;;;;;;15.50;9.82;;;13.90;92.10;;;;;;5006761;28;20045;-73
2022/04/22 11:07:56;;;;;;;14.63;10.05;;;13.70;87.10;;;;;;5005160;28;20030;-73
2022/04/22 11:10:24;;;;;;;15.95;10.35;;;13.70;87.80;;;;;;5004800;28;20026;-74
2022/04/22 11:13:00;;;;;;;18.25;9.60;;;13.60;93.30;;;;;;5003364;28;20485;-74
2022/04/22 11:15:47;;;;;;;15.40;10.75;;;13.60;94.70;;;;;;5003272;28;20080;-73
2022/04/22 11:18:14;;;;;;;15.18;9.27;;;13.70;96.00;;;;;;5007318;28;20042;-74
2022/04/22 11:20:52;;;;;;;15.15;10.35;;;13.90;94.20;;;;;;5003017;28;20112;-74
2022/04/22 11:23:17;;;;;;;13.18;9.48;;;13.80;92.10;;;;;;5003681;28;20049;-73
2022/04/22 11:25:46;;;;;;;16.10;10.77;;;14.00;95.50;;;;;;5004628;28;20025;-73
2022/04/22 11:28:13;;;;;;;19.42;10.55;;;14.20;98.80;;;;;;5003738;28;20053;-73
2022/04/22 11:30:39;;;;;;;14.02;9.95;;;14.50;97.30;;;;;;5004433;28;20042;-73
2022/04/22 11:33:13;;;;;;;13.98;10.48;;;14.40;90.60;;;;;;5004925;28;20022;-73
2022/04/22 11:35:39;;;;;;;15.43;10.52;;;14.50;90.70;;;;;;5002919;28;20103;-72
2022/04/22 11:38:06;;;;;;;14.65;11.10;;;14.50;91.50;;;;;;5005235;28;20427;-73
2022/04/22 11:40:40;;;;;;;16.35;11.48;;;14.70;96.20;;;;;;5003579;28;20041;-72
2022/04/22 11:43:06;;;;;;;18.02;10.80;;;14.60;95.30;;;;;;5003622;28;20133;-73
2022/04/22 11:45:36;;;;;;;14.90;10.02;;;14.50;95.00;;;;;;5006464;28;20042;-73
2022/04/22 11:48:09;;;;;;;15.55;10.40;;;14.50;85.20;;;;;;5004737;28;20037;-72
2022/04/22 11:50:40;;;;;;;15.00;9.95;;;14.40;96.70;;;;;;5004848;28;20152;-73
2022/04/22 11:53:19;;;;;;;18.92;11.63;;;14.50;96.60;;;;;;5002363;28;20034;-73
2022/04/22 11:55:47;;;;;;;16.85;10.50;;;14.80;98.40;;;;;;4999254;28;20460;-73
2022/04/22 11:58:20;;;;;;;14.02;9.93;;;14.70;94.30;;;;;;5018187;28;20037;-73
2022/04/22 12:06:17;;;;;;;14.40;10.40;;;14.40;87.50;;;;;;5002096;28;20037;-73
2022/04/22 12:08:50;;;;;;;17.98;11.32;;;14.60;91.30;;;;;;5003769;28;20038;-73
2022/04/22 12:11:17;;;;;;;14.98;10.95;;;14.80;93.10;;;;;;5002632;28;20038;-73
2022/04/22 12:13:44;;;;;;;16.65;11.20;;;15.20;92.20;;;;;;5003257;28;20030;-74
2022/04/22 12:16:10;;;;;;;14.80;10.85;;;15.20;91.80;;;;;;5002372;28;20045;-73
2022/04/22 12:18:39;;;;;;;15.20;10.25;;;15.10;86.70;;;;;;5001512;28;20067;-73
2022/04/22 12:21:06;;;;;;;15.00;10.40;;;15.20;87.90;;;;;;5001997;28;20156;-73
2022/04/22 12:23:37;;;;;;;13.25;9.90;;;15.60;94.80;;;;;;5001985;28;20477;-73
2022/04/22 12:26:03;;;;;;;15.75;10.25;;;15.70;86.90;;;;;;5001574;28;20535;-73
2022/04/22 12:28:28;;;;;;;14.23;10.55;;;15.40;82.70;;;;;;4999446;28;20042;-73
2022/04/22 12:30:54;;;;;;;13.57;9.73;;;15.10;89.70;;;;;;4999844;28;20045;-73
2022/04/22 12:33:23;;;;;;;14.30;9.70;;;15.20;84.80;;;;;;5000946;28;20108;-73
2022/04/22 12:35:49;;;;;;;12.55;9.15;;;15.00;82.70;;;;;;5001434;28;20033;-73
2022/04/22 12:38:17;;;;;;;13.40;10.57;;;15.00;87.10;;;;;;5000917;28;20034;-74
2022/04/22 12:40:48;;;;;;;13.52;9.27;;;14.90;87.30;;;;;;5001256;28;20087;-73
2022/04/22 12:43:22;;;;;;;14.27;9.27;;;14.70;86.40;;;;;;5001782;28;20050;-73
2022/04/22 12:54:09;;;;;;;14.77;9.63;;;14.80;90.60;;;;;;5003375;28;20081;-73
2022/04/22 12:56:35;;;;;;;13.05;9.20;;;14.80;89.40;;;;;;5001310;28;20125;-73
2022/04/22 12:59:04;;;;;;;12.15;9.05;;;14.70;78.20;;;;;;5001996;28;20034;-73
2022/04/22 13:01:40;;;;;;;12.18;8.57;;;14.60;93.10;;;;;;4997783;28;20075;-73
2022/04/22 13:04:18;;;;;;;15.35;9.07;;;14.70;75.60;;;;;;5002036;28;20088;-73
2022/04/22 13:06:46;;;;;;;12.50;9.27;;;14.90;85.60;;;;;;5000535;28;20128;-73
2022/04/22 13:09:13;;;;;;;11.77;9.23;;;15.20;79.90;;;;;;5001441;28;20405;-72
2022/04/22 13:11:45;;;;;;;11.77;8.73;;;15.50;86.60;;;;;;5000519;28;20041;-73
2022/04/22 13:14:15;;;;;;;13.02;8.30;;;15.80;83.30;;;;;;5001107;28;20053;-73
2022/04/22 13:16:41;;;;;;;13.85;9.02;;;15.70;68.60;;;;;;5000706;28;20042;-73
2022/04/22 13:19:07;;;;;;;13.35;9.23;;;15.70;80.20;;;;;;5001046;28;20033;-73
2022/04/22 13:21:32;;;;;;;13.15;8.73;;;15.70;74.90;;;;;;5001021;28;20030;-73
2022/04/22 13:23:58;;;;;;;13.77;9.15;;;15.70;67.60;;;;;;5000559;28;20046;-73
2022/04/22 13:26:25;;;;;;;13.73;8.60;;;15.60;62.30;;;;;;5001963;28;20144;-73
2022/04/22 13:28:54;;;;;;;11.20;8.38;;;15.30;64.10;;;;;;4999585;28;20035;-73
2022/04/22 13:31:19;;;;;;;12.88;9.32;;;15.10;78.00;;;;;;4998778;28;20184;-73
2022/04/22 13:33:45;;;;;;;13.48;8.63;;;15.20;90.70;;;;;;4998029;28;20117;-73
2022/04/22 13:36:11;;;;;;;14.30;8.80;;;15.20;77.70;;;;;;4999761;28;20038;-73
2022/04/22 13:38:38;;;;;;;11.75;8.75;;;15.20;74.30;;;;;;5001766;28;20121;-73
2022/04/22 13:41:05;;;;;;;12.13;8.73;;;15.20;67.50;;;;;;5000752;28;20081;-73
2022/04/22 13:43:31;;;;;;;14.18;9.00;;;15.40;89.80;;;;;;4999914;28;20439;-73
2022/04/22 13:54:13;;;;;;;14.05;8.43;;;15.30;68.20;;;;;;4999988;28;20547;-74
2022/04/22 13:56:39;;;;;;;12.10;8.30;;;15.20;75.80;;;;;;5000850;28;20046;-73